sensor_id;sensor_type;location;lat;lon;timestamp;P1;durP1;ratioP1;P2;durP2;ratioP2
77400;SDS011;66855;45.414;11.082;2023-03-08T00:01:02;14.70;;;6.60;;
77400;SDS011;66855;45.414;11.082;2023-03-08T00:03:38;9.60;;;5.50;;
77400;SDS011;66855;45.414;11.082;2023-03-08T00:06:05;14.20;;;5.60;;
77400;SDS011;66855;45.414;11.082;2023-03-08T00:08:32;10.40;;;5.50;;
77400;SDS011;66855;45.414;11.082;2023-03-08T00:10:58;12.40;;;5.70;;
77400;SDS011;66855;45.414;11.082;2023-03-08T00:13:24;13.10;;;6.00;;
77400;SDS011;66855;45.414;11.082;2023-03-08T00:15:51;9.70;;;5.20;;
77400;SDS011;66855;45.414;11.082;2023-03-08T00:18:17;12.20;;;5.30;;
77400;SDS011;66855;45.414;11.082;2023-03-08T00:20:43;9.80;;;4.90;;
77400;SDS011;66855;45.414;11.082;2023-03-08T00:23:09;11.70;;;5.10;;
77400;SDS011;66855;45.414;11.082;2023-03-08T00:25:35;10.60;;;4.80;;
77400;SDS011;66855;45.414;11.082;2023-03-08T00:28:02;12.90;;;4.90;;
77400;SDS011;66855;45.414;11.082;2023-03-08T00:30:28;8.40;;;4.70;;
77400;SDS011;66855;45.414;11.082;2023-03-08T00:32:54;9.20;;;4.50;;
77400;SDS011;66855;45.414;11.082;2023-03-08T00:35:21;10.70;;;5.00;;
77400;SDS011;66855;45.414;11.082;2023-03-08T00:37:47;8.70;;;4.70;;
77400;SDS011;66855;45.414;11.082;2023-03-08T00:40:15;10.30;;;4.80;;
77400;SDS011;66855;45.414;11.082;2023-03-08T00:42:41;7.30;;;4.00;;
77400;SDS011;66855;45.414;11.082;2023-03-08T00:45:07;11.30;;;4.60;;
77400;SDS011;66855;45.414;11.082;2023-03-08T00:47:34;10.50;;;5.40;;
77400;SDS011;66855;45.414;11.082;2023-03-08T00:50:00;11.20;;;6.60;;
77400;SDS011;66855;45.414;11.082;2023-03-08T00:52:26;11.60;;;6.20;;
77400;SDS011;66855;45.414;11.082;2023-03-08T00:54:54;10.50;;;6.10;;
77400;SDS011;66855;45.414;11.082;2023-03-08T00:57:20;11.80;;;6.00;;
77400;SDS011;66855;45.414;11.082;2023-03-08T00:59:46;11.40;;;6.10;;
77400;SDS011;66855;45.414;11.082;2023-03-08T01:02:12;11.10;;;6.20;;
77400;SDS011;66855;45.414;11.082;2023-03-08T01:04:38;11.10;;;5.60;;
77400;SDS011;66855;45.414;11.082;2023-03-08T01:07:04;10.30;;;5.80;;
77400;SDS011;66855;45.414;11.082;2023-03-08T01:09:31;9.60;;;5.50;;
77400;SDS011;66855;45.414;11.082;2023-03-08T01:11:57;13.20;;;6.00;;
77400;SDS011;66855;45.414;11.082;2023-03-08T01:14:23;10.30;;;5.80;;
77400;SDS011;66855;45.414;11.082;2023-03-08T01:16:49;12.80;;;6.20;;
77400;SDS011;66855;45.414;11.082;2023-03-08T01:19:15;14.90;;;5.90;;
77400;SDS011;66855;45.414;11.082;2023-03-08T01:21:42;11.60;;;5.70;;
77400;SDS011;66855;45.414;11.082;2023-03-08T01:24:10;11.00;;;5.90;;
77400;SDS011;66855;45.414;11.082;2023-03-08T01:26:37;11.90;;;6.20;;
77400;SDS011;66855;45.414;11.082;2023-03-08T01:29:03;10.10;;;5.80;;
77400;SDS011;66855;45.414;11.082;2023-03-08T01:31:29;12.40;;;6.00;;
77400;SDS011;66855;45.414;11.082;2023-03-08T01:33:57;12.80;;;6.90;;
77400;SDS011;66855;45.414;11.082;2023-03-08T01:36:25;17.60;;;7.10;;
77400;SDS011;66855;45.414;11.082;2023-03-08T01:38:52;13.40;;;7.00;;
77400;SDS011;66855;45.414;11.082;2023-03-08T01:41:20;14.90;;;7.00;;
77400;SDS011;66855;45.414;11.082;2023-03-08T01:43:51;10.60;;;6.80;;
77400;SDS011;66855;45.414;11.082;2023-03-08T01:46:19;11.60;;;6.60;;
77400;SDS011;66855;45.414;11.082;2023-03-08T01:48:52;16.90;;;7.10;;
77400;SDS011;66855;45.414;11.082;2023-03-08T01:51:29;14.10;;;7.00;;
77400;SDS011;66855;45.414;11.082;2023-03-08T01:53:59;14.60;;;6.30;;
77400;SDS011;66855;45.414;11.082;2023-03-08T01:56:29;9.50;;;5.20;;
77400;SDS011;66855;45.414;11.082;2023-03-08T01:58:55;13.00;;;4.70;;
77400;SDS011;66855;45.414;11.082;2023-03-08T02:01:22;7.10;;;4.00;;
77400;SDS011;66855;45.414;11.082;2023-03-08T02:03:49;9.50;;;3.80;;
77400;SDS011;66855;45.414;11.082;2023-03-08T02:06:16;7.90;;;4.10;;
77400;SDS011;66855;45.414;11.082;2023-03-08T02:08:44;9.10;;;4.50;;
77400;SDS011;66855;45.414;11.082;2023-03-08T02:11:10;11.20;;;4.10;;
77400;SDS011;66855;45.414;11.082;2023-03-08T02:13:38;13.50;;;6.20;;
77400;SDS011;66855;45.414;11.082;2023-03-08T02:16:05;15.20;;;5.60;;
77400;SDS011;66855;45.414;11.082;2023-03-08T02:18:33;10.90;;;5.50;;
77400;SDS011;66855;45.414;11.082;2023-03-08T02:20:59;12.50;;;5.40;;
77400;SDS011;66855;45.414;11.082;2023-03-08T02:23:26;13.00;;;4.80;;
77400;SDS011;66855;45.414;11.082;2023-03-08T02:25:53;10.40;;;4.30;;
77400;SDS011;66855;45.414;11.082;2023-03-08T02:28:29;10.30;;;4.70;;
77400;SDS011;66855;45.414;11.082;2023-03-08T02:30:57;11.10;;;4.20;;
77400;SDS011;66855;45.414;11.082;2023-03-08T02:33:24;9.10;;;4.20;;
77400;SDS011;66855;45.414;11.082;2023-03-08T02:35:50;7.40;;;3.60;;
77400;SDS011;66855;45.414;11.082;2023-03-08T02:38:17;7.70;;;3.60;;
77400;SDS011;66855;45.414;11.082;2023-03-08T02:40:45;6.10;;;3.40;;
77400;SDS011;66855;45.414;11.082;2023-03-08T02:43:11;8.80;;;4.80;;
77400;SDS011;66855;45.414;11.082;2023-03-08T02:45:38;8.00;;;3.60;;
77400;SDS011;66855;45.414;11.082;2023-03-08T02:48:06;7.50;;;3.40;;
77400;SDS011;66855;45.414;11.082;2023-03-08T02:50:33;10.70;;;4.50;;
77400;SDS011;66855;45.414;11.082;2023-03-08T02:53:01;14.40;;;5.00;;
77400;SDS011;66855;45.414;11.082;2023-03-08T02:55:28;10.40;;;4.40;;
77400;SDS011;66855;45.414;11.082;2023-03-08T02:57:54;8.70;;;4.60;;
77400;SDS011;66855;45.414;11.082;2023-03-08T03:00:20;9.70;;;4.50;;
77400;SDS011;66855;45.414;11.082;2023-03-08T03:02:47;11.20;;;5.40;;
77400;SDS011;66855;45.414;11.082;2023-03-08T03:05:13;13.20;;;5.60;;
77400;SDS011;66855;45.414;11.082;2023-03-08T03:07:41;25.60;;;6.10;;
77400;SDS011;66855;45.414;11.082;2023-03-08T03:10:12;12.20;;;5.60;;
77400;SDS011;66855;45.414;11.082;2023-03-08T03:12:39;12.30;;;5.40;;
77400;SDS011;66855;45.414;11.082;2023-03-08T03:15:07;11.20;;;5.20;;
77400;SDS011;66855;45.414;11.082;2023-03-08T03:17:34;12.60;;;5.30;;
77400;SDS011;66855;45.414;11.082;2023-03-08T03:20:03;15.00;;;5.70;;
77400;SDS011;66855;45.414;11.082;2023-03-08T03:22:31;10.90;;;4.90;;
77400;SDS011;66855;45.414;11.082;2023-03-08T03:24:58;11.10;;;5.70;;
77400;SDS011;66855;45.414;11.082;2023-03-08T03:27:24;8.80;;;5.60;;
77400;SDS011;66855;45.414;11.082;2023-03-08T03:29:52;9.10;;;5.00;;
77400;SDS011;66855;45.414;11.082;2023-03-08T03:32:19;10.80;;;5.40;;
77400;SDS011;66855;45.414;11.082;2023-03-08T03:34:45;9.80;;;4.90;;
77400;SDS011;66855;45.414;11.082;2023-03-08T03:37:12;9.30;;;4.70;;
77400;SDS011;66855;45.414;11.082;2023-03-08T03:39:38;11.10;;;5.20;;
77400;SDS011;66855;45.414;11.082;2023-03-08T03:42:06;9.80;;;5.20;;
77400;SDS011;66855;45.414;11.082;2023-03-08T03:44:33;10.10;;;5.10;;
77400;SDS011;66855;45.414;11.082;2023-03-08T03:47:00;9.40;;;4.60;;
77400;SDS011;66855;45.414;11.082;2023-03-08T03:49:27;8.70;;;5.00;;
77400;SDS011;66855;45.414;11.082;2023-03-08T03:51:53;12.90;;;5.50;;
77400;SDS011;66855;45.414;11.082;2023-03-08T03:54:23;9.30;;;5.00;;
77400;SDS011;66855;45.414;11.082;2023-03-08T03:56:49;10.60;;;5.00;;
77400;SDS011;66855;45.414;11.082;2023-03-08T03:59:18;12.40;;;5.70;;
77400;SDS011;66855;45.414;11.082;2023-03-08T04:01:44;9.90;;;5.00;;
77400;SDS011;66855;45.414;11.082;2023-03-08T04:04:16;9.30;;;5.00;;
77400;SDS011;66855;45.414;11.082;2023-03-08T04:06:45;9.30;;;4.70;;
77400;SDS011;66855;45.414;11.082;2023-03-08T04:09:13;10.70;;;5.20;;
77400;SDS011;66855;45.414;11.082;2023-03-08T04:11:41;9.10;;;4.90;;
77400;SDS011;66855;45.414;11.082;2023-03-08T04:14:12;8.40;;;4.40;;
77400;SDS011;66855;45.414;11.082;2023-03-08T04:16:38;9.10;;;4.70;;
77400;SDS011;66855;45.414;11.082;2023-03-08T04:19:10;10.30;;;4.30;;
77400;SDS011;66855;45.414;11.082;2023-03-08T04:21:39;9.30;;;4.80;;
77400;SDS011;66855;45.414;11.082;2023-03-08T04:24:05;11.80;;;6.20;;
77400;SDS011;66855;45.414;11.082;2023-03-08T04:26:33;12.10;;;5.70;;
77400;SDS011;66855;45.414;11.082;2023-03-08T04:28:59;14.80;;;5.80;;
77400;SDS011;66855;45.414;11.082;2023-03-08T04:31:31;13.60;;;6.30;;
77400;SDS011;66855;45.414;11.082;2023-03-08T04:34:01;14.40;;;5.50;;
77400;SDS011;66855;45.414;11.082;2023-03-08T04:36:28;10.40;;;5.70;;
77400;SDS011;66855;45.414;11.082;2023-03-08T04:38:56;15.50;;;6.80;;
77400;SDS011;66855;45.414;11.082;2023-03-08T04:41:23;17.60;;;8.10;;
77400;SDS011;66855;45.414;11.082;2023-03-08T04:44:22;12.80;;;6.70;;
77400;SDS011;66855;45.414;11.082;2023-03-08T04:46:49;9.60;;;5.50;;
77400;SDS011;66855;45.414;11.082;2023-03-08T04:49:22;10.60;;;5.90;;
77400;SDS011;66855;45.414;11.082;2023-03-08T04:51:51;10.40;;;6.20;;
77400;SDS011;66855;45.414;11.082;2023-03-08T04:54:18;17.00;;;5.40;;
77400;SDS011;66855;45.414;11.082;2023-03-08T04:56:48;10.10;;;5.60;;
77400;SDS011;66855;45.414;11.082;2023-03-08T04:59:15;12.10;;;5.60;;
77400;SDS011;66855;45.414;11.082;2023-03-08T05:01:41;11.60;;;5.50;;
77400;SDS011;66855;45.414;11.082;2023-03-08T05:04:10;9.80;;;4.90;;
77400;SDS011;66855;45.414;11.082;2023-03-08T05:06:37;10.60;;;5.80;;
77400;SDS011;66855;45.414;11.082;2023-03-08T05:09:04;10.40;;;5.80;;
77400;SDS011;66855;45.414;11.082;2023-03-08T05:11:32;12.30;;;5.50;;
77400;SDS011;66855;45.414;11.082;2023-03-08T05:13:58;11.50;;;5.70;;
77400;SDS011;66855;45.414;11.082;2023-03-08T05:16:25;16.00;;;6.90;;
77400;SDS011;66855;45.414;11.082;2023-03-08T05:18:52;11.80;;;5.90;;
77400;SDS011;66855;45.414;11.082;2023-03-08T05:21:21;11.40;;;5.70;;
77400;SDS011;66855;45.414;11.082;2023-03-08T05:23:51;13.40;;;5.90;;
77400;SDS011;66855;45.414;11.082;2023-03-08T05:26:18;14.40;;;6.20;;
77400;SDS011;66855;45.414;11.082;2023-03-08T05:28:45;9.60;;;5.60;;
77400;SDS011;66855;45.414;11.082;2023-03-08T05:31:14;10.80;;;6.20;;
77400;SDS011;66855;45.414;11.082;2023-03-08T05:33:42;12.60;;;5.90;;
77400;SDS011;66855;45.414;11.082;2023-03-08T05:36:12;12.80;;;5.50;;
77400;SDS011;66855;45.414;11.082;2023-03-08T05:38:40;10.20;;;5.50;;
77400;SDS011;66855;45.414;11.082;2023-03-08T05:41:10;9.20;;;4.80;;
77400;SDS011;66855;45.414;11.082;2023-03-08T05:43:37;10.30;;;4.70;;
77400;SDS011;66855;45.414;11.082;2023-03-08T05:46:05;10.40;;;4.90;;
77400;SDS011;66855;45.414;11.082;2023-03-08T05:48:35;10.80;;;4.80;;
77400;SDS011;66855;45.414;11.082;2023-03-08T05:51:05;12.30;;;5.80;;
77400;SDS011;66855;45.414;11.082;2023-03-08T05:53:33;13.10;;;6.00;;
77400;SDS011;66855;45.414;11.082;2023-03-08T05:56:06;10.90;;;5.60;;
77400;SDS011;66855;45.414;11.082;2023-03-08T05:58:35;10.50;;;5.40;;
77400;SDS011;66855;45.414;11.082;2023-03-08T06:03:35;12.40;;;5.60;;
77400;SDS011;66855;45.414;11.082;2023-03-08T06:06:02;12.10;;;5.50;;
77400;SDS011;66855;45.414;11.082;2023-03-08T06:08:28;10.90;;;5.10;;
77400;SDS011;66855;45.414;11.082;2023-03-08T06:10:55;10.80;;;5.50;;
77400;SDS011;66855;45.414;11.082;2023-03-08T06:13:21;11.60;;;5.30;;
77400;SDS011;66855;45.414;11.082;2023-03-08T06:15:47;14.50;;;5.10;;
77400;SDS011;66855;45.414;11.082;2023-03-08T06:18:14;9.60;;;5.20;;
77400;SDS011;66855;45.414;11.082;2023-03-08T06:20:40;9.50;;;5.00;;
77400;SDS011;66855;45.414;11.082;2023-03-08T06:23:06;9.50;;;4.20;;
77400;SDS011;66855;45.414;11.082;2023-03-08T06:25:32;11.50;;;5.30;;
77400;SDS011;66855;45.414;11.082;2023-03-08T06:27:59;12.00;;;5.20;;
77400;SDS011;66855;45.414;11.082;2023-03-08T06:30:30;12.40;;;5.70;;
77400;SDS011;66855;45.414;11.082;2023-03-08T06:32:56;12.40;;;6.10;;
77400;SDS011;66855;45.414;11.082;2023-03-08T06:35:22;9.90;;;5.70;;
77400;SDS011;66855;45.414;11.082;2023-03-08T06:37:53;12.80;;;5.40;;
77400;SDS011;66855;45.414;11.082;2023-03-08T06:40:19;11.90;;;5.60;;
77400;SDS011;66855;45.414;11.082;2023-03-08T06:42:45;9.40;;;4.70;;
77400;SDS011;66855;45.414;11.082;2023-03-08T06:45:12;12.40;;;5.40;;
77400;SDS011;66855;45.414;11.082;2023-03-08T06:47:39;12.90;;;5.40;;
77400;SDS011;66855;45.414;11.082;2023-03-08T06:50:05;13.40;;;5.40;;
77400;SDS011;66855;45.414;11.082;2023-03-08T06:52:32;14.20;;;5.80;;
77400;SDS011;66855;45.414;11.082;2023-03-08T06:55:03;15.90;;;5.80;;
77400;SDS011;66855;45.414;11.082;2023-03-08T06:57:29;15.80;;;6.50;;
77400;SDS011;66855;45.414;11.082;2023-03-08T06:59:55;17.10;;;7.30;;
77400;SDS011;66855;45.414;11.082;2023-03-08T07:02:21;18.00;;;6.60;;
77400;SDS011;66855;45.414;11.082;2023-03-08T07:04:48;14.80;;;6.70;;
77400;SDS011;66855;45.414;11.082;2023-03-08T07:07:15;20.10;;;6.30;;
77400;SDS011;66855;45.414;11.082;2023-03-08T07:09:41;28.20;;;7.70;;
77400;SDS011;66855;45.414;11.082;2023-03-08T07:12:07;21.00;;;7.20;;
77400;SDS011;66855;45.414;11.082;2023-03-08T07:14:33;27.80;;;7.10;;
77400;SDS011;66855;45.414;11.082;2023-03-08T07:17:00;20.40;;;7.50;;
77400;SDS011;66855;45.414;11.082;2023-03-08T07:19:29;12.70;;;6.20;;
77400;SDS011;66855;45.414;11.082;2023-03-08T07:21:56;17.50;;;6.80;;
77400;SDS011;66855;45.414;11.082;2023-03-08T07:24:23;15.20;;;6.70;;
77400;SDS011;66855;45.414;11.082;2023-03-08T07:26:49;20.80;;;6.80;;
77400;SDS011;66855;45.414;11.082;2023-03-08T07:29:15;20.00;;;7.40;;
77400;SDS011;66855;45.414;11.082;2023-03-08T07:31:42;18.70;;;7.10;;
77400;SDS011;66855;45.414;11.082;2023-03-08T07:34:09;16.50;;;7.90;;
77400;SDS011;66855;45.414;11.082;2023-03-08T07:36:36;15.50;;;8.10;;
77400;SDS011;66855;45.414;11.082;2023-03-08T07:39:04;21.40;;;9.20;;
77400;SDS011;66855;45.414;11.082;2023-03-08T07:41:30;18.50;;;8.70;;
77400;SDS011;66855;45.414;11.082;2023-03-08T07:43:57;21.30;;;9.80;;
77400;SDS011;66855;45.414;11.082;2023-03-08T07:46:25;16.90;;;9.30;;
77400;SDS011;66855;45.414;11.082;2023-03-08T07:48:53;21.00;;;10.80;;
77400;SDS011;66855;45.414;11.082;2023-03-08T07:51:20;19.80;;;10.10;;
77400;SDS011;66855;45.414;11.082;2023-03-08T07:53:47;18.40;;;10.60;;
77400;SDS011;66855;45.414;11.082;2023-03-08T07:56:13;19.60;;;10.90;;
77400;SDS011;66855;45.414;11.082;2023-03-08T07:58:39;21.50;;;11.60;;
77400;SDS011;66855;45.414;11.082;2023-03-08T08:01:12;24.10;;;12.80;;
77400;SDS011;66855;45.414;11.082;2023-03-08T08:03:41;23.90;;;10.20;;
77400;SDS011;66855;45.414;11.082;2023-03-08T08:06:08;20.00;;;10.10;;
77400;SDS011;66855;45.414;11.082;2023-03-08T08:08:34;21.40;;;8.30;;
77400;SDS011;66855;45.414;11.082;2023-03-08T08:11:00;19.20;;;8.50;;
77400;SDS011;66855;45.414;11.082;2023-03-08T08:13:26;22.10;;;9.20;;
77400;SDS011;66855;45.414;11.082;2023-03-08T08:15:59;23.10;;;10.00;;
77400;SDS011;66855;45.414;11.082;2023-03-08T08:18:26;22.70;;;9.30;;
77400;SDS011;66855;45.414;11.082;2023-03-08T08:21:06;20.00;;;9.30;;
77400;SDS011;66855;45.414;11.082;2023-03-08T08:23:34;17.80;;;9.30;;
77400;SDS011;66855;45.414;11.082;2023-03-08T08:26:06;16.50;;;9.00;;
77400;SDS011;66855;45.414;11.082;2023-03-08T08:28:34;18.50;;;10.00;;
77400;SDS011;66855;45.414;11.082;2023-03-08T08:31:02;16.60;;;9.60;;
77400;SDS011;66855;45.414;11.082;2023-03-08T08:35:56;18.40;;;9.80;;
77400;SDS011;66855;45.414;11.082;2023-03-08T08:38:23;20.50;;;10.90;;
77400;SDS011;66855;45.414;11.082;2023-03-08T08:40:49;20.70;;;11.20;;
77400;SDS011;66855;45.414;11.082;2023-03-08T08:43:16;17.40;;;10.90;;
77400;SDS011;66855;45.414;11.082;2023-03-08T08:45:43;21.60;;;11.10;;
77400;SDS011;66855;45.414;11.082;2023-03-08T08:48:11;20.20;;;10.80;;
77400;SDS011;66855;45.414;11.082;2023-03-08T08:50:38;20.00;;;11.30;;
77400;SDS011;66855;45.414;11.082;2023-03-08T08:53:05;23.50;;;12.30;;
77400;SDS011;66855;45.414;11.082;2023-03-08T08:55:32;22.30;;;11.40;;
77400;SDS011;66855;45.414;11.082;2023-03-08T08:57:59;22.60;;;12.70;;
77400;SDS011;66855;45.414;11.082;2023-03-08T09:00:26;28.20;;;14.10;;
77400;SDS011;66855;45.414;11.082;2023-03-08T09:02:52;25.90;;;14.50;;
77400;SDS011;66855;45.414;11.082;2023-03-08T09:05:18;27.20;;;14.00;;
77400;SDS011;66855;45.414;11.082;2023-03-08T09:07:45;30.50;;;15.90;;
77400;SDS011;66855;45.414;11.082;2023-03-08T09:10:11;28.10;;;15.80;;
77400;SDS011;66855;45.414;11.082;2023-03-08T09:12:37;28.00;;;16.90;;
77400;SDS011;66855;45.414;11.082;2023-03-08T09:15:04;32.90;;;17.40;;
77400;SDS011;66855;45.414;11.082;2023-03-08T09:17:31;37.00;;;18.10;;
77400;SDS011;66855;45.414;11.082;2023-03-08T09:19:58;32.80;;;18.30;;
77400;SDS011;66855;45.414;11.082;2023-03-08T09:22:24;27.90;;;16.60;;
77400;SDS011;66855;45.414;11.082;2023-03-08T09:24:51;33.00;;;17.40;;
77400;SDS011;66855;45.414;11.082;2023-03-08T09:27:17;30.10;;;16.00;;
77400;SDS011;66855;45.414;11.082;2023-03-08T09:29:43;26.80;;;14.50;;
77400;SDS011;66855;45.414;11.082;2023-03-08T09:32:09;31.60;;;16.60;;
77400;SDS011;66855;45.414;11.082;2023-03-08T09:34:35;27.30;;;15.80;;
77400;SDS011;66855;45.414;11.082;2023-03-08T09:37:01;27.90;;;17.10;;
77400;SDS011;66855;45.414;11.082;2023-03-08T09:39:31;27.20;;;15.50;;
77400;SDS011;66855;45.414;11.082;2023-03-08T09:42:00;24.80;;;14.10;;
77400;SDS011;66855;45.414;11.082;2023-03-08T09:47:36;28.00;;;14.00;;
77400;SDS011;66855;45.414;11.082;2023-03-08T09:52:37;24.50;;;13.80;;
77400;SDS011;66855;45.414;11.082;2023-03-08T09:55:15;23.60;;;13.70;;
77400;SDS011;66855;45.414;11.082;2023-03-08T09:57:56;24.70;;;13.30;;
77400;SDS011;66855;45.414;11.082;2023-03-08T10:00:28;25.40;;;12.70;;
77400;SDS011;66855;45.414;11.082;2023-03-08T10:11:35;22.60;;;12.10;;
77400;SDS011;66855;45.414;11.082;2023-03-08T10:14:15;24.80;;;13.10;;
77400;SDS011;66855;45.414;11.082;2023-03-08T10:16:45;25.50;;;12.90;;
77400;SDS011;66855;45.414;11.082;2023-03-08T10:21:59;21.60;;;13.20;;
77400;SDS011;66855;45.414;11.082;2023-03-08T10:24:41;22.00;;;13.00;;
77400;SDS011;66855;45.414;11.082;2023-03-08T10:27:15;22.70;;;11.50;;
77400;SDS011;66855;45.414;11.082;2023-03-08T10:29:48;22.20;;;13.10;;
77400;SDS011;66855;45.414;11.082;2023-03-08T10:32:19;24.20;;;12.50;;
77400;SDS011;66855;45.414;11.082;2023-03-08T10:34:46;21.10;;;13.10;;
77400;SDS011;66855;45.414;11.082;2023-03-08T10:37:12;21.70;;;13.00;;
77400;SDS011;66855;45.414;11.082;2023-03-08T10:39:46;21.20;;;12.60;;
77400;SDS011;66855;45.414;11.082;2023-03-08T10:42:18;23.30;;;13.40;;
77400;SDS011;66855;45.414;11.082;2023-03-08T10:47:27;23.10;;;13.00;;
77400;SDS011;66855;45.414;11.082;2023-03-08T10:52:28;23.20;;;12.70;;
77400;SDS011;66855;45.414;11.082;2023-03-08T10:57:32;22.30;;;12.80;;
77400;SDS011;66855;45.414;11.082;2023-03-08T11:02:38;20.40;;;12.30;;
77400;SDS011;66855;45.414;11.082;2023-03-08T11:05:25;21.70;;;12.60;;
77400;SDS011;66855;45.414;11.082;2023-03-08T11:07:52;23.80;;;12.80;;
77400;SDS011;66855;45.414;11.082;2023-03-08T11:10:20;20.10;;;12.30;;
77400;SDS011;66855;45.414;11.082;2023-03-08T11:13:35;22.60;;;11.60;;
77400;SDS011;66855;45.414;11.082;2023-03-08T11:15:39;18.30;;;10.60;;
77400;SDS011;66855;45.414;11.082;2023-03-08T11:20:41;19.30;;;11.90;;
77400;SDS011;66855;45.414;11.082;2023-03-08T11:23:15;22.30;;;11.80;;
77400;SDS011;66855;45.414;11.082;2023-03-08T11:28:37;19.00;;;10.90;;
77400;SDS011;66855;45.414;11.082;2023-03-08T11:31:22;19.90;;;11.00;;
77400;SDS011;66855;45.414;11.082;2023-03-08T11:34:07;19.30;;;10.40;;
77400;SDS011;66855;45.414;11.082;2023-03-08T11:36:43;17.70;;;10.80;;
77400;SDS011;66855;45.414;11.082;2023-03-08T11:42:24;21.60;;;10.50;;
77400;SDS011;66855;45.414;11.082;2023-03-08T11:45:22;20.50;;;11.30;;
77400;SDS011;66855;45.414;11.082;2023-03-08T11:50:50;20.20;;;11.20;;
77400;SDS011;66855;45.414;11.082;2023-03-08T11:55:54;18.70;;;10.90;;
77400;SDS011;66855;45.414;11.082;2023-03-08T11:58:35;16.50;;;10.30;;
77400;SDS011;66855;45.414;11.082;2023-03-08T12:01:08;18.00;;;10.30;;
77400;SDS011;66855;45.414;11.082;2023-03-08T12:03:43;17.40;;;9.70;;
77400;SDS011;66855;45.414;11.082;2023-03-08T12:06:13;24.20;;;11.70;;
77400;SDS011;66855;45.414;11.082;2023-03-08T12:11:42;17.30;;;10.90;;
77400;SDS011;66855;45.414;11.082;2023-03-08T12:14:31;20.20;;;11.60;;
77400;SDS011;66855;45.414;11.082;2023-03-08T12:19:35;17.40;;;10.30;;
77400;SDS011;66855;45.414;11.082;2023-03-08T12:27:57;17.10;;;10.00;;
77400;SDS011;66855;45.414;11.082;2023-03-08T12:30:36;19.70;;;10.60;;
77400;SDS011;66855;45.414;11.082;2023-03-08T12:33:08;19.10;;;10.10;;
77400;SDS011;66855;45.414;11.082;2023-03-08T12:35:48;19.40;;;10.50;;
77400;SDS011;66855;45.414;11.082;2023-03-08T12:40:43;15.30;;;10.60;;
77400;SDS011;66855;45.414;11.082;2023-03-08T12:43:14;18.20;;;10.50;;
77400;SDS011;66855;45.414;11.082;2023-03-08T12:48:27;17.80;;;9.90;;
77400;SDS011;66855;45.414;11.082;2023-03-08T12:53:42;16.80;;;9.80;;
77400;SDS011;66855;45.414;11.082;2023-03-08T12:56:22;16.30;;;9.40;;
77400;SDS011;66855;45.414;11.082;2023-03-08T12:58:51;17.20;;;10.10;;
77400;SDS011;66855;45.414;11.082;2023-03-08T13:01:31;14.30;;;8.70;;
77400;SDS011;66855;45.414;11.082;2023-03-08T13:04:00;15.90;;;9.20;;
77400;SDS011;66855;45.414;11.082;2023-03-08T13:06:36;16.50;;;9.50;;
77400;SDS011;66855;45.414;11.082;2023-03-08T13:11:59;13.40;;;8.10;;
77400;SDS011;66855;45.414;11.082;2023-03-08T13:22:24;13.50;;;9.40;;
77400;SDS011;66855;45.414;11.082;2023-03-08T13:24:57;15.80;;;8.40;;
77400;SDS011;66855;45.414;11.082;2023-03-08T13:33:00;15.60;;;8.80;;
77400;SDS011;66855;45.414;11.082;2023-03-08T13:35:31;15.50;;;8.50;;
77400;SDS011;66855;45.414;11.082;2023-03-08T13:37:58;13.90;;;8.50;;
77400;SDS011;66855;45.414;11.082;2023-03-08T13:40:25;13.20;;;7.70;;
77400;SDS011;66855;45.414;11.082;2023-03-08T13:43:00;13.60;;;8.20;;
77400;SDS011;66855;45.414;11.082;2023-03-08T13:45:29;13.90;;;8.40;;
77400;SDS011;66855;45.414;11.082;2023-03-08T13:47:59;12.80;;;8.30;;
77400;SDS011;66855;45.414;11.082;2023-03-08T13:50:29;14.10;;;8.40;;
77400;SDS011;66855;45.414;11.082;2023-03-08T13:53:00;16.30;;;8.60;;
77400;SDS011;66855;45.414;11.082;2023-03-08T13:55:32;14.20;;;8.70;;
77400;SDS011;66855;45.414;11.082;2023-03-08T13:58:00;14.50;;;8.50;;
77400;SDS011;66855;45.414;11.082;2023-03-08T14:00:34;12.90;;;8.60;;
77400;SDS011;66855;45.414;11.082;2023-03-08T14:03:03;18.80;;;9.10;;
77400;SDS011;66855;45.414;11.082;2023-03-08T14:05:39;14.60;;;8.70;;
77400;SDS011;66855;45.414;11.082;2023-03-08T14:08:17;13.80;;;8.80;;
77400;SDS011;66855;45.414;11.082;2023-03-08T14:10:45;15.00;;;8.60;;
77400;SDS011;66855;45.414;11.082;2023-03-08T14:13:23;14.60;;;8.40;;
77400;SDS011;66855;45.414;11.082;2023-03-08T14:15:53;18.10;;;8.90;;
77400;SDS011;66855;45.414;11.082;2023-03-08T14:18:22;14.40;;;7.70;;
77400;SDS011;66855;45.414;11.082;2023-03-08T14:20:59;13.40;;;8.00;;
77400;SDS011;66855;45.414;11.082;2023-03-08T14:23:46;11.40;;;7.10;;
77400;SDS011;66855;45.414;11.082;2023-03-08T14:28:49;10.90;;;6.00;;
77400;SDS011;66855;45.414;11.082;2023-03-08T14:31:54;13.10;;;6.80;;
77400;SDS011;66855;45.414;11.082;2023-03-08T14:34:26;9.80;;;6.30;;
77400;SDS011;66855;45.414;11.082;2023-03-08T14:37:01;13.90;;;6.20;;
77400;SDS011;66855;45.414;11.082;2023-03-08T14:39:32;12.60;;;6.90;;
77400;SDS011;66855;45.414;11.082;2023-03-08T14:45:05;10.70;;;7.20;;
77400;SDS011;66855;45.414;11.082;2023-03-08T14:47:33;10.60;;;7.40;;
77400;SDS011;66855;45.414;11.082;2023-03-08T14:50:14;11.70;;;7.40;;
77400;SDS011;66855;45.414;11.082;2023-03-08T14:53:02;13.00;;;6.90;;
77400;SDS011;66855;45.414;11.082;2023-03-08T14:56:30;12.50;;;7.70;;
77400;SDS011;66855;45.414;11.082;2023-03-08T14:58:58;12.80;;;7.80;;
77400;SDS011;66855;45.414;11.082;2023-03-08T15:01:33;13.10;;;8.20;;
77400;SDS011;66855;45.414;11.082;2023-03-08T15:04:01;11.30;;;8.00;;
77400;SDS011;66855;45.414;11.082;2023-03-08T15:06:32;12.00;;;8.00;;
77400;SDS011;66855;45.414;11.082;2023-03-08T15:09:00;12.10;;;7.90;;
77400;SDS011;66855;45.414;11.082;2023-03-08T15:11:26;15.60;;;8.40;;
77400;SDS011;66855;45.414;11.082;2023-03-08T15:13:56;16.10;;;8.40;;
77400;SDS011;66855;45.414;11.082;2023-03-08T15:16:23;15.60;;;8.60;;
77400;SDS011;66855;45.414;11.082;2023-03-08T15:18:51;13.70;;;7.70;;
77400;SDS011;66855;45.414;11.082;2023-03-08T15:21:20;12.50;;;7.50;;
77400;SDS011;66855;45.414;11.082;2023-03-08T15:23:48;9.60;;;7.90;;
77400;SDS011;66855;45.414;11.082;2023-03-08T15:26:16;13.60;;;7.70;;
77400;SDS011;66855;45.414;11.082;2023-03-08T15:28:48;14.40;;;8.00;;
77400;SDS011;66855;45.414;11.082;2023-03-08T15:31:14;15.40;;;8.00;;
77400;SDS011;66855;45.414;11.082;2023-03-08T15:33:40;15.30;;;8.40;;
77400;SDS011;66855;45.414;11.082;2023-03-08T15:36:09;14.00;;;8.20;;
77400;SDS011;66855;45.414;11.082;2023-03-08T15:38:41;17.80;;;8.60;;
77400;SDS011;66855;45.414;11.082;2023-03-08T15:41:11;14.90;;;8.90;;
77400;SDS011;66855;45.414;11.082;2023-03-08T15:43:37;12.50;;;8.80;;
77400;SDS011;66855;45.414;11.082;2023-03-08T15:46:05;16.30;;;8.80;;
77400;SDS011;66855;45.414;11.082;2023-03-08T15:48:31;17.20;;;10.60;;
77400;SDS011;66855;45.414;11.082;2023-03-08T15:50:57;21.00;;;12.60;;
77400;SDS011;66855;45.414;11.082;2023-03-08T15:53:23;23.00;;;13.50;;
77400;SDS011;66855;45.414;11.082;2023-03-08T15:56:00;22.60;;;12.70;;
77400;SDS011;66855;45.414;11.082;2023-03-08T15:58:28;15.90;;;9.70;;
77400;SDS011;66855;45.414;11.082;2023-03-08T16:00:54;15.60;;;9.20;;